sensor_id;sensor_type;location;lat;lon;timestamp;P1;durP1;ratioP1;P2;durP2;ratioP2
56720;SDS011;53183;47.412;18.884;2024-03-08T00:01:41;16.92;;;9.85;;
56720;SDS011;53183;47.412;18.884;2024-03-08T00:04:08;18.15;;;9.57;;
56720;SDS011;53183;47.412;18.884;2024-03-08T00:06:37;16.92;;;10.07;;
56720;SDS011;53183;47.412;18.884;2024-03-08T00:09:04;19.42;;;9.73;;
56720;SDS011;53183;47.412;18.884;2024-03-08T00:11:35;23.70;;;10.48;;
56720;SDS011;53183;47.412;18.884;2024-03-08T00:14:02;19.05;;;9.93;;
56720;SDS011;53183;47.412;18.884;2024-03-08T00:16:33;16.73;;;9.02;;
56720;SDS011;53183;47.412;18.884;2024-03-08T00:19:02;19.55;;;9.98;;
56720;SDS011;53183;47.412;18.884;2024-03-08T00:21:29;22.73;;;11.12;;
56720;SDS011;53183;47.412;18.884;2024-03-08T00:23:57;19.25;;;9.55;;
56720;SDS011;53183;47.412;18.884;2024-03-08T00:26:24;26.48;;;12.10;;
56720;SDS011;53183;47.412;18.884;2024-03-08T00:28:52;27.02;;;12.88;;
56720;SDS011;53183;47.412;18.884;2024-03-08T00:31:20;25.27;;;12.60;;
56720;SDS011;53183;47.412;18.884;2024-03-08T00:33:48;22.20;;;12.45;;
56720;SDS011;53183;47.412;18.884;2024-03-08T00:36:15;22.98;;;11.50;;
56720;SDS011;53183;47.412;18.884;2024-03-08T00:38:43;20.15;;;10.98;;
56720;SDS011;53183;47.412;18.884;2024-03-08T00:41:11;21.67;;;12.18;;
56720;SDS011;53183;47.412;18.884;2024-03-08T00:43:39;24.70;;;11.55;;
56720;SDS011;53183;47.412;18.884;2024-03-08T00:46:06;26.50;;;12.98;;
56720;SDS011;53183;47.412;18.884;2024-03-08T00:48:34;25.45;;;12.13;;
56720;SDS011;53183;47.412;18.884;2024-03-08T00:51:03;24.25;;;12.68;;
56720;SDS011;53183;47.412;18.884;2024-03-08T00:53:30;24.23;;;12.05;;
56720;SDS011;53183;47.412;18.884;2024-03-08T00:55:57;26.08;;;13.25;;
56720;SDS011;53183;47.412;18.884;2024-03-08T00:58:24;24.48;;;12.90;;
56720;SDS011;53183;47.412;18.884;2024-03-08T01:00:51;27.77;;;13.82;;
56720;SDS011;53183;47.412;18.884;2024-03-08T01:03:19;27.83;;;13.32;;
56720;SDS011;53183;47.412;18.884;2024-03-08T01:05:47;29.50;;;13.52;;
56720;SDS011;53183;47.412;18.884;2024-03-08T01:08:15;23.92;;;13.00;;
56720;SDS011;53183;47.412;18.884;2024-03-08T01:10:42;25.02;;;12.90;;
56720;SDS011;53183;47.412;18.884;2024-03-08T01:13:09;28.15;;;14.13;;
56720;SDS011;53183;47.412;18.884;2024-03-08T01:15:37;28.95;;;14.10;;
56720;SDS011;53183;47.412;18.884;2024-03-08T01:18:04;25.92;;;14.07;;
56720;SDS011;53183;47.412;18.884;2024-03-08T01:20:32;27.62;;;12.85;;
56720;SDS011;53183;47.412;18.884;2024-03-08T01:23:00;27.70;;;14.15;;
56720;SDS011;53183;47.412;18.884;2024-03-08T01:25:27;26.50;;;13.35;;
56720;SDS011;53183;47.412;18.884;2024-03-08T01:27:54;28.87;;;12.77;;
56720;SDS011;53183;47.412;18.884;2024-03-08T01:30:22;28.98;;;13.85;;
56720;SDS011;53183;47.412;18.884;2024-03-08T01:32:50;32.45;;;15.60;;
56720;SDS011;53183;47.412;18.884;2024-03-08T01:35:18;27.55;;;14.68;;
56720;SDS011;53183;47.412;18.884;2024-03-08T01:37:46;30.70;;;14.38;;
56720;SDS011;53183;47.412;18.884;2024-03-08T01:40:13;31.60;;;15.63;;
56720;SDS011;53183;47.412;18.884;2024-03-08T01:42:42;26.60;;;13.27;;
56720;SDS011;53183;47.412;18.884;2024-03-08T01:45:11;30.33;;;15.65;;
56720;SDS011;53183;47.412;18.884;2024-03-08T01:47:41;30.45;;;14.75;;
56720;SDS011;53183;47.412;18.884;2024-03-08T01:50:08;33.95;;;14.85;;
56720;SDS011;53183;47.412;18.884;2024-03-08T01:52:38;32.13;;;15.38;;
56720;SDS011;53183;47.412;18.884;2024-03-08T01:55:05;32.38;;;15.30;;
56720;SDS011;53183;47.412;18.884;2024-03-08T01:57:35;35.00;;;16.45;;
56720;SDS011;53183;47.412;18.884;2024-03-08T02:00:05;37.08;;;16.35;;
56720;SDS011;53183;47.412;18.884;2024-03-08T02:02:48;33.03;;;15.30;;
56720;SDS011;53183;47.412;18.884;2024-03-08T02:05:18;33.00;;;16.10;;
56720;SDS011;53183;47.412;18.884;2024-03-08T02:07:46;41.97;;;15.93;;
56720;SDS011;53183;47.412;18.884;2024-03-08T02:10:14;31.30;;;15.27;;
56720;SDS011;53183;47.412;18.884;2024-03-08T02:12:41;36.35;;;15.60;;
56720;SDS011;53183;47.412;18.884;2024-03-08T02:15:09;30.52;;;16.52;;
56720;SDS011;53183;47.412;18.884;2024-03-08T02:17:38;35.72;;;15.43;;
56720;SDS011;53183;47.412;18.884;2024-03-08T02:20:29;33.42;;;16.27;;
56720;SDS011;53183;47.412;18.884;2024-03-08T02:22:56;33.38;;;16.33;;
56720;SDS011;53183;47.412;18.884;2024-03-08T02:25:23;35.85;;;16.08;;
56720;SDS011;53183;47.412;18.884;2024-03-08T02:27:51;38.63;;;17.00;;
56720;SDS011;53183;47.412;18.884;2024-03-08T02:30:18;28.62;;;15.23;;
56720;SDS011;53183;47.412;18.884;2024-03-08T02:32:46;33.92;;;16.40;;
56720;SDS011;53183;47.412;18.884;2024-03-08T02:35:19;38.92;;;16.27;;
56720;SDS011;53183;47.412;18.884;2024-03-08T02:37:53;30.20;;;15.45;;
56720;SDS011;53183;47.412;18.884;2024-03-08T02:40:21;37.83;;;16.77;;
56720;SDS011;53183;47.412;18.884;2024-03-08T02:42:51;34.75;;;16.33;;
56720;SDS011;53183;47.412;18.884;2024-03-08T02:45:18;39.17;;;17.60;;
56720;SDS011;53183;47.412;18.884;2024-03-08T02:47:45;36.72;;;16.52;;
56720;SDS011;53183;47.412;18.884;2024-03-08T02:50:14;34.22;;;16.48;;
56720;SDS011;53183;47.412;18.884;2024-03-08T02:52:43;34.70;;;16.37;;
56720;SDS011;53183;47.412;18.884;2024-03-08T02:55:10;40.72;;;17.73;;
56720;SDS011;53183;47.412;18.884;2024-03-08T02:57:40;38.20;;;16.48;;
56720;SDS011;53183;47.412;18.884;2024-03-08T03:00:07;35.30;;;16.55;;
56720;SDS011;53183;47.412;18.884;2024-03-08T03:02:38;35.13;;;16.87;;
56720;SDS011;53183;47.412;18.884;2024-03-08T03:05:05;38.90;;;16.98;;
56720;SDS011;53183;47.412;18.884;2024-03-08T03:07:33;38.47;;;18.45;;
56720;SDS011;53183;47.412;18.884;2024-03-08T03:10:00;40.60;;;17.73;;
56720;SDS011;53183;47.412;18.884;2024-03-08T03:12:30;36.42;;;18.10;;
56720;SDS011;53183;47.412;18.884;2024-03-08T03:14:57;36.25;;;18.90;;
56720;SDS011;53183;47.412;18.884;2024-03-08T03:17:24;38.83;;;18.83;;
56720;SDS011;53183;47.412;18.884;2024-03-08T03:19:52;41.45;;;18.98;;
56720;SDS011;53183;47.412;18.884;2024-03-08T03:22:19;35.17;;;17.77;;
56720;SDS011;53183;47.412;18.884;2024-03-08T03:24:47;43.35;;;17.95;;
56720;SDS011;53183;47.412;18.884;2024-03-08T03:27:14;43.50;;;18.73;;
56720;SDS011;53183;47.412;18.884;2024-03-08T03:29:42;41.88;;;19.25;;
56720;SDS011;53183;47.412;18.884;2024-03-08T03:32:13;41.97;;;19.35;;
56720;SDS011;53183;47.412;18.884;2024-03-08T03:34:41;42.13;;;19.17;;
56720;SDS011;53183;47.412;18.884;2024-03-08T03:37:10;41.37;;;19.95;;
56720;SDS011;53183;47.412;18.884;2024-03-08T03:39:41;40.22;;;18.17;;
56720;SDS011;53183;47.412;18.884;2024-03-08T03:42:19;49.28;;;20.00;;
56720;SDS011;53183;47.412;18.884;2024-03-08T03:44:47;45.05;;;20.40;;
56720;SDS011;53183;47.412;18.884;2024-03-08T03:47:15;50.83;;;21.37;;
56720;SDS011;53183;47.412;18.884;2024-03-08T03:49:42;43.17;;;21.10;;
56720;SDS011;53183;47.412;18.884;2024-03-08T03:52:09;46.88;;;21.05;;
56720;SDS011;53183;47.412;18.884;2024-03-08T03:54:37;49.08;;;20.15;;
56720;SDS011;53183;47.412;18.884;2024-03-08T03:57:05;45.00;;;20.02;;
56720;SDS011;53183;47.412;18.884;2024-03-08T03:59:33;41.65;;;19.65;;
56720;SDS011;53183;47.412;18.884;2024-03-08T04:02:00;40.97;;;20.20;;
56720;SDS011;53183;47.412;18.884;2024-03-08T04:04:28;50.63;;;21.20;;
56720;SDS011;53183;47.412;18.884;2024-03-08T04:06:56;43.50;;;18.77;;
56720;SDS011;53183;47.412;18.884;2024-03-08T04:09:23;42.67;;;19.58;;
56720;SDS011;53183;47.412;18.884;2024-03-08T04:11:50;43.60;;;21.02;;
56720;SDS011;53183;47.412;18.884;2024-03-08T04:14:21;45.80;;;19.60;;
56720;SDS011;53183;47.412;18.884;2024-03-08T04:16:49;42.20;;;19.77;;
56720;SDS011;53183;47.412;18.884;2024-03-08T04:19:17;44.15;;;20.23;;
56720;SDS011;53183;47.412;18.884;2024-03-08T04:21:44;46.60;;;21.00;;
56720;SDS011;53183;47.412;18.884;2024-03-08T04:24:11;43.87;;;19.85;;
56720;SDS011;53183;47.412;18.884;2024-03-08T04:26:39;43.95;;;19.77;;
56720;SDS011;53183;47.412;18.884;2024-03-08T04:29:06;44.13;;;18.80;;
56720;SDS011;53183;47.412;18.884;2024-03-08T04:31:33;51.78;;;18.90;;
56720;SDS011;53183;47.412;18.884;2024-03-08T04:34:01;42.72;;;20.88;;
56720;SDS011;53183;47.412;18.884;2024-03-08T04:36:28;43.60;;;20.27;;
56720;SDS011;53183;47.412;18.884;2024-03-08T04:38:55;46.75;;;20.80;;
56720;SDS011;53183;47.412;18.884;2024-03-08T04:41:23;38.13;;;20.37;;
56720;SDS011;53183;47.412;18.884;2024-03-08T04:43:59;46.88;;;17.92;;
56720;SDS011;53183;47.412;18.884;2024-03-08T04:46:28;39.90;;;18.55;;
56720;SDS011;53183;47.412;18.884;2024-03-08T04:48:58;50.10;;;20.30;;
56720;SDS011;53183;47.412;18.884;2024-03-08T04:51:29;53.22;;;21.60;;
56720;SDS011;53183;47.412;18.884;2024-03-08T04:53:59;48.83;;;21.17;;
56720;SDS011;53183;47.412;18.884;2024-03-08T04:56:30;42.20;;;19.98;;
56720;SDS011;53183;47.412;18.884;2024-03-08T04:58:58;45.55;;;20.37;;
56720;SDS011;53183;47.412;18.884;2024-03-08T05:01:25;41.83;;;20.88;;
56720;SDS011;53183;47.412;18.884;2024-03-08T05:03:52;42.25;;;20.73;;
56720;SDS011;53183;47.412;18.884;2024-03-08T05:06:27;45.90;;;20.67;;
56720;SDS011;53183;47.412;18.884;2024-03-08T05:08:55;42.95;;;18.73;;
56720;SDS011;53183;47.412;18.884;2024-03-08T05:11:22;46.67;;;21.45;;
56720;SDS011;53183;47.412;18.884;2024-03-08T05:13:50;53.72;;;21.08;;
56720;SDS011;53183;47.412;18.884;2024-03-08T05:16:17;48.50;;;21.45;;
56720;SDS011;53183;47.412;18.884;2024-03-08T05:18:44;44.15;;;20.70;;
56720;SDS011;53183;47.412;18.884;2024-03-08T05:21:14;48.28;;;20.30;;
56720;SDS011;53183;47.412;18.884;2024-03-08T05:23:41;40.78;;;20.85;;
56720;SDS011;53183;47.412;18.884;2024-03-08T05:26:09;45.45;;;19.90;;
56720;SDS011;53183;47.412;18.884;2024-03-08T05:28:36;39.15;;;19.73;;
56720;SDS011;53183;47.412;18.884;2024-03-08T05:31:03;43.87;;;20.83;;
56720;SDS011;53183;47.412;18.884;2024-03-08T05:33:30;56.88;;;22.40;;
56720;SDS011;53183;47.412;18.884;2024-03-08T05:35:58;50.38;;;20.40;;
56720;SDS011;53183;47.412;18.884;2024-03-08T05:38:25;49.30;;;20.08;;
56720;SDS011;53183;47.412;18.884;2024-03-08T05:40:52;46.90;;;20.35;;
56720;SDS011;53183;47.412;18.884;2024-03-08T05:43:20;44.35;;;19.50;;
56720;SDS011;53183;47.412;18.884;2024-03-08T05:45:47;46.08;;;19.23;;
56720;SDS011;53183;47.412;18.884;2024-03-08T05:50:49;48.00;;;19.20;;
56720;SDS011;53183;47.412;18.884;2024-03-08T05:53:17;45.80;;;18.98;;
56720;SDS011;53183;47.412;18.884;2024-03-08T05:55:44;40.63;;;20.20;;
56720;SDS011;53183;47.412;18.884;2024-03-08T05:58:11;43.78;;;20.90;;
56720;SDS011;53183;47.412;18.884;2024-03-08T06:00:39;40.58;;;19.52;;
56720;SDS011;53183;47.412;18.884;2024-03-08T06:03:07;43.25;;;19.37;;
56720;SDS011;53183;47.412;18.884;2024-03-08T06:05:34;47.97;;;20.65;;
56720;SDS011;53183;47.412;18.884;2024-03-08T06:08:02;51.22;;;20.85;;
56720;SDS011;53183;47.412;18.884;2024-03-08T06:10:30;48.28;;;21.37;;
56720;SDS011;53183;47.412;18.884;2024-03-08T06:12:59;45.58;;;19.75;;
56720;SDS011;53183;47.412;18.884;2024-03-08T06:15:27;48.78;;;21.60;;
56720;SDS011;53183;47.412;18.884;2024-03-08T06:17:55;42.22;;;19.05;;
56720;SDS011;53183;47.412;18.884;2024-03-08T06:20:25;42.20;;;19.92;;
56720;SDS011;53183;47.412;18.884;2024-03-08T06:22:54;49.63;;;22.00;;
56720;SDS011;53183;47.412;18.884;2024-03-08T06:25:21;48.35;;;20.35;;
56720;SDS011;53183;47.412;18.884;2024-03-08T06:27:50;53.75;;;21.80;;
56720;SDS011;53183;47.412;18.884;2024-03-08T06:30:23;46.58;;;22.62;;
56720;SDS011;53183;47.412;18.884;2024-03-08T06:32:56;48.40;;;19.90;;
56720;SDS011;53183;47.412;18.884;2024-03-08T06:35:23;48.55;;;21.58;;
56720;SDS011;53183;47.412;18.884;2024-03-08T06:37:51;47.15;;;21.23;;
56720;SDS011;53183;47.412;18.884;2024-03-08T06:40:18;42.80;;;19.77;;
56720;SDS011;53183;47.412;18.884;2024-03-08T06:42:45;45.88;;;20.20;;
56720;SDS011;53183;47.412;18.884;2024-03-08T06:45:13;43.70;;;20.33;;
56720;SDS011;53183;47.412;18.884;2024-03-08T06:47:46;44.40;;;20.00;;
56720;SDS011;53183;47.412;18.884;2024-03-08T06:50:14;44.08;;;20.02;;
56720;SDS011;53183;47.412;18.884;2024-03-08T06:52:41;48.92;;;21.15;;
56720;SDS011;53183;47.412;18.884;2024-03-08T06:55:24;48.58;;;21.35;;
56720;SDS011;53183;47.412;18.884;2024-03-08T06:57:53;48.87;;;19.58;;
56720;SDS011;53183;47.412;18.884;2024-03-08T07:00:20;51.30;;;21.83;;
56720;SDS011;53183;47.412;18.884;2024-03-08T07:02:48;46.03;;;20.33;;
56720;SDS011;53183;47.412;18.884;2024-03-08T07:05:15;46.53;;;20.65;;
56720;SDS011;53183;47.412;18.884;2024-03-08T07:07:43;43.08;;;21.52;;
56720;SDS011;53183;47.412;18.884;2024-03-08T07:10:11;44.60;;;20.55;;
56720;SDS011;53183;47.412;18.884;2024-03-08T07:12:41;45.42;;;19.95;;
56720;SDS011;53183;47.412;18.884;2024-03-08T07:15:09;48.65;;;21.55;;
56720;SDS011;53183;47.412;18.884;2024-03-08T07:17:42;44.22;;;20.15;;
56720;SDS011;53183;47.412;18.884;2024-03-08T07:20:11;43.95;;;19.67;;
56720;SDS011;53183;47.412;18.884;2024-03-08T07:22:40;49.28;;;21.62;;
56720;SDS011;53183;47.412;18.884;2024-03-08T07:25:11;50.75;;;20.95;;
56720;SDS011;53183;47.412;18.884;2024-03-08T07:27:56;44.30;;;20.20;;
56720;SDS011;53183;47.412;18.884;2024-03-08T07:30:24;47.08;;;20.70;;
56720;SDS011;53183;47.412;18.884;2024-03-08T07:33:12;47.00;;;21.20;;
56720;SDS011;53183;47.412;18.884;2024-03-08T07:35:41;50.92;;;22.40;;
56720;SDS011;53183;47.412;18.884;2024-03-08T07:38:09;51.10;;;24.92;;
56720;SDS011;53183;47.412;18.884;2024-03-08T07:40:39;51.13;;;23.50;;
56720;SDS011;53183;47.412;18.884;2024-03-08T07:43:09;46.03;;;19.80;;
56720;SDS011;53183;47.412;18.884;2024-03-08T07:45:38;48.00;;;21.98;;
56720;SDS011;53183;47.412;18.884;2024-03-08T07:48:06;54.80;;;22.73;;
56720;SDS011;53183;47.412;18.884;2024-03-08T07:50:38;54.10;;;23.60;;
56720;SDS011;53183;47.412;18.884;2024-03-08T07:53:07;46.92;;;19.90;;
56720;SDS011;53183;47.412;18.884;2024-03-08T07:55:37;54.25;;;21.95;;
56720;SDS011;53183;47.412;18.884;2024-03-08T07:58:07;50.97;;;22.60;;
56720;SDS011;53183;47.412;18.884;2024-03-08T08:00:40;51.83;;;21.30;;
56720;SDS011;53183;47.412;18.884;2024-03-08T08:03:11;58.20;;;22.73;;
56720;SDS011;53183;47.412;18.884;2024-03-08T08:05:39;52.62;;;22.00;;
56720;SDS011;53183;47.412;18.884;2024-03-08T08:08:10;58.30;;;22.80;;
56720;SDS011;53183;47.412;18.884;2024-03-08T08:10:39;56.20;;;23.05;;
56720;SDS011;53183;47.412;18.884;2024-03-08T08:13:06;47.33;;;20.10;;
56720;SDS011;53183;47.412;18.884;2024-03-08T08:15:34;51.42;;;21.33;;
56720;SDS011;53183;47.412;18.884;2024-03-08T08:18:02;48.90;;;22.02;;
56720;SDS011;53183;47.412;18.884;2024-03-08T08:20:33;51.70;;;22.25;;
56720;SDS011;53183;47.412;18.884;2024-03-08T08:23:00;53.42;;;22.58;;
56720;SDS011;53183;47.412;18.884;2024-03-08T08:25:28;55.55;;;22.73;;
56720;SDS011;53183;47.412;18.884;2024-03-08T08:27:56;56.63;;;23.02;;
56720;SDS011;53183;47.412;18.884;2024-03-08T08:30:23;54.83;;;23.23;;
56720;SDS011;53183;47.412;18.884;2024-03-08T08:32:51;49.88;;;23.20;;
56720;SDS011;53183;47.412;18.884;2024-03-08T08:35:19;61.72;;;23.95;;
56720;SDS011;53183;47.412;18.884;2024-03-08T08:37:57;59.88;;;23.92;;
56720;SDS011;53183;47.412;18.884;2024-03-08T08:40:27;53.45;;;22.98;;
56720;SDS011;53183;47.412;18.884;2024-03-08T08:42:58;59.50;;;23.90;;
56720;SDS011;53183;47.412;18.884;2024-03-08T08:45:28;59.88;;;24.02;;
56720;SDS011;53183;47.412;18.884;2024-03-08T08:47:56;56.67;;;22.73;;
56720;SDS011;53183;47.412;18.884;2024-03-08T08:50:23;56.22;;;23.92;;
56720;SDS011;53183;47.412;18.884;2024-03-08T08:52:51;47.85;;;21.65;;
56720;SDS011;53183;47.412;18.884;2024-03-08T08:55:21;52.80;;;22.15;;
56720;SDS011;53183;47.412;18.884;2024-03-08T08:57:53;50.83;;;22.00;;
56720;SDS011;53183;47.412;18.884;2024-03-08T09:00:21;46.60;;;20.77;;
56720;SDS011;53183;47.412;18.884;2024-03-08T09:03:07;47.50;;;21.10;;
56720;SDS011;53183;47.412;18.884;2024-03-08T09:05:39;47.65;;;21.12;;
56720;SDS011;53183;47.412;18.884;2024-03-08T09:08:24;47.92;;;19.48;;
56720;SDS011;53183;47.412;18.884;2024-03-08T09:10:55;41.40;;;20.67;;
56720;SDS011;53183;47.412;18.884;2024-03-08T09:13:26;51.65;;;21.75;;
56720;SDS011;53183;47.412;18.884;2024-03-08T09:15:59;43.97;;;20.02;;
56720;SDS011;53183;47.412;18.884;2024-03-08T09:18:27;51.35;;;20.62;;
56720;SDS011;53183;47.412;18.884;2024-03-08T09:20:55;47.83;;;20.40;;
56720;SDS011;53183;47.412;18.884;2024-03-08T09:23:23;48.20;;;22.67;;
56720;SDS011;53183;47.412;18.884;2024-03-08T09:25:51;49.40;;;20.92;;
56720;SDS011;53183;47.412;18.884;2024-03-08T09:28:18;50.33;;;21.17;;
56720;SDS011;53183;47.412;18.884;2024-03-08T09:30:47;51.30;;;23.15;;
56720;SDS011;53183;47.412;18.884;2024-03-08T09:33:26;47.88;;;22.30;;
56720;SDS011;53183;47.412;18.884;2024-03-08T09:35:56;48.42;;;21.58;;
56720;SDS011;53183;47.412;18.884;2024-03-08T09:38:26;48.38;;;22.30;;
56720;SDS011;53183;47.412;18.884;2024-03-08T09:40:54;48.72;;;23.33;;
56720;SDS011;53183;47.412;18.884;2024-03-08T09:43:25;49.53;;;22.08;;
56720;SDS011;53183;47.412;18.884;2024-03-08T09:45:56;51.37;;;22.95;;
56720;SDS011;53183;47.412;18.884;2024-03-08T09:48:25;49.95;;;25.40;;
56720;SDS011;53183;47.412;18.884;2024-03-08T09:50:53;50.67;;;21.83;;
56720;SDS011;53183;47.412;18.884;2024-03-08T09:53:22;42.62;;;22.05;;
56720;SDS011;53183;47.412;18.884;2024-03-08T09:55:50;48.55;;;24.33;;
56720;SDS011;53183;47.412;18.884;2024-03-08T09:58:19;51.83;;;22.23;;
56720;SDS011;53183;47.412;18.884;2024-03-08T10:01:03;49.83;;;24.42;;
56720;SDS011;53183;47.412;18.884;2024-03-08T10:03:32;52.88;;;24.42;;
56720;SDS011;53183;47.412;18.884;2024-03-08T10:06:00;51.40;;;23.25;;
56720;SDS011;53183;47.412;18.884;2024-03-08T10:08:27;47.55;;;22.73;;
56720;SDS011;53183;47.412;18.884;2024-03-08T10:10:57;56.50;;;23.05;;
56720;SDS011;53183;47.412;18.884;2024-03-08T10:13:25;50.45;;;23.70;;
56720;SDS011;53183;47.412;18.884;2024-03-08T10:15:57;45.72;;;21.60;;
56720;SDS011;53183;47.412;18.884;2024-03-08T10:18:24;54.45;;;22.83;;
56720;SDS011;53183;47.412;18.884;2024-03-08T10:23:52;40.70;;;19.92;;
56720;SDS011;53183;47.412;18.884;2024-03-08T10:26:19;48.63;;;23.10;;
56720;SDS011;53183;47.412;18.884;2024-03-08T10:28:48;52.62;;;23.23;;
56720;SDS011;53183;47.412;18.884;2024-03-08T10:31:16;51.45;;;23.35;;
56720;SDS011;53183;47.412;18.884;2024-03-08T10:33:45;50.03;;;23.27;;
56720;SDS011;53183;47.412;18.884;2024-03-08T10:36:13;53.55;;;22.73;;
56720;SDS011;53183;47.412;18.884;2024-03-08T10:38:42;55.75;;;23.25;;
56720;SDS011;53183;47.412;18.884;2024-03-08T10:41:15;52.58;;;23.17;;
56720;SDS011;53183;47.412;18.884;2024-03-08T10:43:52;57.75;;;23.33;;
56720;SDS011;53183;47.412;18.884;2024-03-08T10:46:40;44.53;;;22.50;;
56720;SDS011;53183;47.412;18.884;2024-03-08T10:49:37;54.42;;;23.05;;
56720;SDS011;53183;47.412;18.884;2024-03-08T10:52:06;56.55;;;23.95;;
56720;SDS011;53183;47.412;18.884;2024-03-08T10:54:36;50.75;;;25.00;;
56720;SDS011;53183;47.412;18.884;2024-03-08T10:57:12;53.35;;;22.52;;
56720;SDS011;53183;47.412;18.884;2024-03-08T10:59:42;52.88;;;21.20;;
56720;SDS011;53183;47.412;18.884;2024-03-08T11:02:11;54.83;;;23.73;;
56720;SDS011;53183;47.412;18.884;2024-03-08T11:04:43;49.20;;;21.85;;
56720;SDS011;53183;47.412;18.884;2024-03-08T11:07:13;48.17;;;21.87;;
56720;SDS011;53183;47.412;18.884;2024-03-08T11:09:51;49.38;;;22.30;;
56720;SDS011;53183;47.412;18.884;2024-03-08T11:14:58;48.42;;;21.55;;
56720;SDS011;53183;47.412;18.884;2024-03-08T11:19:56;43.47;;;21.80;;
56720;SDS011;53183;47.412;18.884;2024-03-08T11:22:28;46.37;;;21.70;;
56720;SDS011;53183;47.412;18.884;2024-03-08T11:25:03;48.42;;;22.50;;
56720;SDS011;53183;47.412;18.884;2024-03-08T11:27:37;44.05;;;20.85;;
56720;SDS011;53183;47.412;18.884;2024-03-08T11:30:05;47.58;;;19.48;;
56720;SDS011;53183;47.412;18.884;2024-03-08T11:32:51;47.60;;;20.37;;
56720;SDS011;53183;47.412;18.884;2024-03-08T11:35:22;42.75;;;19.98;;
56720;SDS011;53183;47.412;18.884;2024-03-08T11:37:50;40.53;;;18.80;;
56720;SDS011;53183;47.412;18.884;2024-03-08T11:40:18;46.58;;;20.00;;
56720;SDS011;53183;47.412;18.884;2024-03-08T11:42:47;39.17;;;18.27;;
56720;SDS011;53183;47.412;18.884;2024-03-08T11:45:16;38.38;;;17.40;;
56720;SDS011;53183;47.412;18.884;2024-03-08T11:47:45;35.17;;;17.17;;
56720;SDS011;53183;47.412;18.884;2024-03-08T11:52:50;36.28;;;17.42;;
56720;SDS011;53183;47.412;18.884;2024-03-08T11:55:17;33.00;;;17.75;;
56720;SDS011;53183;47.412;18.884;2024-03-08T11:57:47;35.50;;;18.02;;
56720;SDS011;53183;47.412;18.884;2024-03-08T12:00:15;31.95;;;17.05;;
56720;SDS011;53183;47.412;18.884;2024-03-08T12:03:11;32.17;;;18.30;;
56720;SDS011;53183;47.412;18.884;2024-03-08T12:05:38;43.80;;;18.40;;
56720;SDS011;53183;47.412;18.884;2024-03-08T12:08:06;32.22;;;15.88;;
56720;SDS011;53183;47.412;18.884;2024-03-08T12:10:36;33.63;;;16.98;;
56720;SDS011;53183;47.412;18.884;2024-03-08T12:13:03;29.45;;;15.68;;
56720;SDS011;53183;47.412;18.884;2024-03-08T12:15:39;26.23;;;15.20;;
56720;SDS011;53183;47.412;18.884;2024-03-08T12:18:07;30.92;;;15.30;;
56720;SDS011;53183;47.412;18.884;2024-03-08T12:20:37;27.25;;;15.80;;
56720;SDS011;53183;47.412;18.884;2024-03-08T12:23:13;31.55;;;15.35;;
56720;SDS011;53183;47.412;18.884;2024-03-08T12:25:42;27.33;;;15.43;;
56720;SDS011;53183;47.412;18.884;2024-03-08T12:28:09;35.45;;;17.15;;
56720;SDS011;53183;47.412;18.884;2024-03-08T12:30:46;27.98;;;15.68;;
56720;SDS011;53183;47.412;18.884;2024-03-08T12:33:18;29.37;;;16.48;;
56720;SDS011;53183;47.412;18.884;2024-03-08T12:35:52;31.17;;;15.00;;
56720;SDS011;53183;47.412;18.884;2024-03-08T12:38:22;37.33;;;18.52;;
56720;SDS011;53183;47.412;18.884;2024-03-08T12:40:55;35.80;;;17.87;;
56720;SDS011;53183;47.412;18.884;2024-03-08T12:43:25;39.90;;;20.88;;
56720;SDS011;53183;47.412;18.884;2024-03-08T12:45:54;35.65;;;16.90;;
56720;SDS011;53183;47.412;18.884;2024-03-08T12:48:21;32.30;;;16.35;;
56720;SDS011;53183;47.412;18.884;2024-03-08T12:50:50;26.65;;;16.77;;
56720;SDS011;53183;47.412;18.884;2024-03-08T12:53:21;35.72;;;16.37;;
56720;SDS011;53183;47.412;18.884;2024-03-08T12:55:51;29.58;;;15.70;;
56720;SDS011;53183;47.412;18.884;2024-03-08T12:58:19;29.80;;;16.70;;
56720;SDS011;53183;47.412;18.884;2024-03-08T13:00:48;29.90;;;17.20;;
56720;SDS011;53183;47.412;18.884;2024-03-08T13:03:20;30.62;;;16.12;;
56720;SDS011;53183;47.412;18.884;2024-03-08T13:05:50;32.08;;;15.55;;
56720;SDS011;53183;47.412;18.884;2024-03-08T13:08:17;33.13;;;16.83;;
56720;SDS011;53183;47.412;18.884;2024-03-08T13:10:45;36.05;;;17.55;;
56720;SDS011;53183;47.412;18.884;2024-03-08T13:13:12;31.55;;;16.00;;
56720;SDS011;53183;47.412;18.884;2024-03-08T13:15:44;26.30;;;15.13;;
56720;SDS011;53183;47.412;18.884;2024-03-08T13:18:12;27.50;;;15.82;;
56720;SDS011;53183;47.412;18.884;2024-03-08T13:20:40;24.15;;;14.73;;
56720;SDS011;53183;47.412;18.884;2024-03-08T13:23:15;22.85;;;14.35;;
56720;SDS011;53183;47.412;18.884;2024-03-08T13:25:57;29.85;;;14.75;;
56720;SDS011;53183;47.412;18.884;2024-03-08T13:28:28;27.95;;;14.45;;
56720;SDS011;53183;47.412;18.884;2024-03-08T13:30:57;32.35;;;15.05;;
56720;SDS011;53183;47.412;18.884;2024-03-08T13:33:29;29.52;;;15.05;;
56720;SDS011;53183;47.412;18.884;2024-03-08T13:35:57;24.08;;;15.27;;
56720;SDS011;53183;47.412;18.884;2024-03-08T13:38:32;43.78;;;22.58;;
56720;SDS011;53183;47.412;18.884;2024-03-08T13:41:01;42.65;;;20.92;;
56720;SDS011;53183;47.412;18.884;2024-03-08T13:43:30;34.85;;;16.15;;
56720;SDS011;53183;47.412;18.884;2024-03-08T13:46:03;29.02;;;17.12;;
56720;SDS011;53183;47.412;18.884;2024-03-08T13:48:31;34.88;;;14.00;;
56720;SDS011;53183;47.412;18.884;2024-03-08T13:50:59;26.02;;;13.30;;
56720;SDS011;53183;47.412;18.884;2024-03-08T13:53:37;19.95;;;13.40;;
56720;SDS011;53183;47.412;18.884;2024-03-08T13:56:05;25.17;;;13.30;;
56720;SDS011;53183;47.412;18.884;2024-03-08T13:58:34;17.35;;;11.90;;
56720;SDS011;53183;47.412;18.884;2024-03-08T14:01:02;23.67;;;13.00;;
56720;SDS011;53183;47.412;18.884;2024-03-08T14:03:33;19.55;;;11.55;;
56720;SDS011;53183;47.412;18.884;2024-03-08T14:06:02;21.75;;;10.88;;
56720;SDS011;53183;47.412;18.884;2024-03-08T14:08:31;20.00;;;12.00;;
56720;SDS011;53183;47.412;18.884;2024-03-08T14:11:00;22.65;;;11.48;;
56720;SDS011;53183;47.412;18.884;2024-03-08T14:13:43;17.87;;;11.15;;
56720;SDS011;53183;47.412;18.884;2024-03-08T14:16:14;22.62;;;14.23;;
56720;SDS011;53183;47.412;18.884;2024-03-08T14:18:44;25.00;;;12.77;;
56720;SDS011;53183;47.412;18.884;2024-03-08T14:21:11;21.45;;;11.80;;
56720;SDS011;53183;47.412;18.884;2024-03-08T14:23:40;18.35;;;11.90;;
56720;SDS011;53183;47.412;18.884;2024-03-08T14:26:09;19.35;;;11.32;;
56720;SDS011;53183;47.412;18.884;2024-03-08T14:28:37;20.67;;;11.73;;
56720;SDS011;53183;47.412;18.884;2024-03-08T14:31:06;26.73;;;12.10;;
56720;SDS011;53183;47.412;18.884;2024-03-08T14:33:39;30.15;;;12.18;;
56720;SDS011;53183;47.412;18.884;2024-03-08T14:36:09;19.35;;;12.57;;